Time;durP1;ratioP1;P1;durP2;ratioP2;P2;SDS_P1;SDS_P2;PMS_P1;PMS_P2;Temp;Humidity;BMP_temperature;BMP_pressure;BME280_temperature;BME280_humidity;BME280_pressure;Samples;Min_cycle;Max_cycle;Signal;HPM_P1;HPM_P2
2023/12/02 00:01:51;;;;;;;0.73;0.73;;;;;;;9.64;100.00;98250.63;5111567;28;20201;-65
2023/12/02 00:04:17;;;;;;;1.03;0.80;;;;;;;9.59;100.00;98258.66;5111349;28;20209;-65
2023/12/02 00:06:44;;;;;;;0.87;0.80;;;;;;;9.50;100.00;98254.28;5111226;28;20598;-65
2023/12/02 00:09:11;;;;;;;0.73;0.73;;;;;;;9.40;100.00;98248.34;5111256;28;20202;-64
2023/12/02 00:11:39;;;;;;;2.00;1.13;;;;;;;9.33;100.00;98252.28;5111256;28;20320;-64
2023/12/02 00:14:06;;;;;;;1.33;1.03;;;;;;;9.29;100.00;98252.53;5111048;28;20193;-64
2023/12/02 00:16:34;;;;;;;1.30;0.90;;;;;;;9.41;100.00;98260.16;5110928;28;20225;-65
2023/12/02 00:19:01;;;;;;;0.97;0.87;;;;;;;9.47;100.00;98265.56;5110818;28;20586;-65
2023/12/02 00:21:27;;;;;;;1.33;1.13;;;;;;;9.50;100.00;98267.06;5111008;28;20201;-65
2023/12/02 00:23:54;;;;;;;2.00;1.17;;;;;;;9.43;100.00;98260.84;5110972;27;20671;-65
2023/12/02 00:26:21;;;;;;;1.03;0.80;;;;;;;9.41;100.00;98265.25;5110934;28;20229;-64
2023/12/02 00:28:48;;;;;;;3.17;1.37;;;;;;;9.35;100.00;98258.09;5110814;28;20209;-64
2023/12/02 00:31:14;;;;;;;1.27;1.03;;;;;;;9.32;100.00;98261.69;5110664;28;20235;-64
2023/12/02 00:33:43;;;;;;;1.13;1.00;;;;;;;9.42;100.00;98259.19;5109586;28;20193;-64
2023/12/02 00:36:10;;;;;;;1.60;0.80;;;;;;;9.38;100.00;98255.28;5110611;28;20292;-64
2023/12/02 00:38:37;;;;;;;1.13;1.00;;;;;;;9.35;100.00;98260.66;5110558;28;20193;-64
2023/12/02 00:41:05;;;;;;;1.17;1.00;;;;;;;9.36;100.00;98257.16;5110597;28;20728;-64
2023/12/02 00:43:31;;;;;;;1.43;1.10;;;;;;;9.47;100.00;98254.53;5110734;28;20220;-64
2023/12/02 00:45:58;;;;;;;0.60;0.60;;;;;;;9.44;100.00;98265.00;5110761;28;20215;-64
2023/12/02 00:48:25;;;;;;;1.17;0.90;;;;;;;9.48;100.00;98263.81;5111098;28;20212;-64
2023/12/02 00:50:53;;;;;;;1.40;1.30;;;;;;;9.57;100.00;98270.75;5110572;28;20189;-64
2023/12/02 00:53:21;;;;;;;1.17;0.83;;;;;;;9.53;100.00;98267.59;5110351;28;20205;-64
2023/12/02 00:55:47;;;;;;;2.13;1.40;;;;;;;9.75;100.00;98274.34;5110261;27;20651;-64
2023/12/02 00:58:14;;;;;;;2.10;0.83;;;;;;;9.80;99.81;98271.38;5110252;28;20201;-64
2023/12/02 01:00:41;;;;;;;3.70;1.20;;;;;;;9.84;99.31;98271.97;5110011;28;20217;-64
2023/12/02 01:03:08;;;;;;;1.47;1.20;;;;;;;9.72;100.00;98272.03;5110137;28;20678;-64
2023/12/02 01:05:35;;;;;;;1.20;1.07;;;;;;;9.58;100.00;98266.44;5110096;28;20197;-64
2023/12/02 01:08:03;;;;;;;1.00;0.97;;;;;;;9.56;100.00;98261.44;5110025;28;20201;-64
2023/12/02 01:10:29;;;;;;;1.20;1.03;;;;;;;9.51;100.00;98263.56;5110179;28;20201;-64
2023/12/02 01:12:56;;;;;;;1.27;0.87;;;;;;;9.44;100.00;98265.00;5109830;28;20232;-64
2023/12/02 01:15:23;;;;;;;1.20;0.83;;;;;;;9.43;100.00;98258.28;5110623;28;20201;-64
2023/12/02 01:17:50;;;;;;;2.30;0.97;;;;;;;9.56;100.00;98264.00;5109760;28;20201;-64
2023/12/02 01:20:17;;;;;;;1.07;0.90;;;;;;;9.57;100.00;98255.44;5109778;28;20212;-64
2023/12/02 01:22:43;;;;;;;2.03;1.20;;;;;;;9.56;100.00;98253.78;5109686;28;20249;-64
2023/12/02 01:25:12;;;;;;;1.97;1.00;;;;;;;9.50;100.00;98251.75;5109699;27;20205;-64
2023/12/02 01:27:38;;;;;;;1.53;0.97;;;;;;;9.54;100.00;98258.22;5109613;28;20198;-64
2023/12/02 01:30:06;;;;;;;0.90;0.80;;;;;;;9.51;100.00;98255.91;5109636;28;20197;-64
2023/12/02 01:32:33;;;;;;;1.13;1.00;;;;;;;9.55;100.00;98262.41;5109710;28;20236;-64
2023/12/02 01:35:00;;;;;;;1.77;1.20;;;;;;;9.51;100.00;98256.75;5109462;28;20688;-64
2023/12/02 01:37:27;;;;;;;1.47;1.10;;;;;;;9.48;100.00;98261.25;5109573;28;20201;-64
2023/12/02 01:39:53;;;;;;;1.97;1.20;;;;;;;9.41;100.00;98260.16;5109505;28;20692;-64
2023/12/02 01:42:22;;;;;;;1.97;1.47;;;;;;;9.38;100.00;98248.44;5109352;28;20587;-64
2023/12/02 01:44:49;;;;;;;1.07;0.83;;;;;;;9.45;100.00;98236.00;5109009;28;20197;-64
2023/12/02 01:47:16;;;;;;;1.13;0.83;;;;;;;9.42;100.00;98242.16;5109455;28;20589;-65
2023/12/02 01:49:45;;;;;;;0.77;0.77;;;;;;;9.40;100.00;98238.13;5109234;28;20198;-64
2023/12/02 01:52:12;;;;;;;1.20;1.07;;;;;;;9.43;100.00;98237.88;5109236;28;20224;-64
2023/12/02 01:54:39;;;;;;;1.37;0.93;;;;;;;9.42;100.00;98239.59;5109552;28;20193;-64
2023/12/02 01:57:07;;;;;;;0.90;0.70;;;;;;;9.40;100.00;98245.78;5109051;28;20201;-64
2023/12/02 01:59:36;;;;;;;1.47;1.17;;;;;;;9.26;100.00;98234.94;5109071;28;20198;-64
2023/12/02 02:02:02;;;;;;;1.47;0.83;;;;;;;9.19;100.00;98233.81;5109214;28;20201;-64
2023/12/02 02:04:29;;;;;;;2.10;1.30;;;;;;;9.18;100.00;98229.63;5108981;28;20193;-64
2023/12/02 02:06:56;;;;;;;2.00;1.30;;;;;;;9.28;100.00;98222.88;5108845;28;20233;-64
2023/12/02 02:09:23;;;;;;;1.33;1.10;;;;;;;9.45;100.00;98215.59;5109045;28;20228;-64
2023/12/02 02:11:50;;;;;;;2.93;1.23;;;;;;;9.52;100.00;98216.72;5109087;28;20256;-64
2023/12/02 02:14:17;;;;;;;2.03;1.07;;;;;;;9.49;100.00;98225.44;5109084;28;20208;-64
2023/12/02 02:16:45;;;;;;;1.30;1.20;;;;;;;9.46;100.00;98220.56;5108754;28;20209;-64
2023/12/02 02:19:12;;;;;;;1.73;1.00;;;;;;;9.41;100.00;98225.22;5108941;28;20197;-64
2023/12/02 02:21:40;;;;;;;1.53;1.07;;;;;;;9.63;99.16;98223.47;5109014;28;20277;-64
2023/12/02 02:24:07;;;;;;;1.00;1.00;;;;;;;9.55;99.43;98201.16;5108845;28;20228;-64
2023/12/02 02:26:34;;;;;;;1.07;0.80;;;;;;;9.66;98.30;98197.72;5108864;28;20194;-64
2023/12/02 02:29:01;;;;;;;1.80;1.37;;;;;;;9.70;98.45;98197.31;5109035;28;20641;-64
2023/12/02 02:31:27;;;;;;;1.93;1.30;;;;;;;9.66;97.75;98195.97;5109261;28;20205;-64
2023/12/02 02:33:54;;;;;;;1.07;1.00;;;;;;;9.67;98.54;98189.94;5109145;28;20204;-64
2023/12/02 02:36:21;;;;;;;1.07;0.97;;;;;;;9.65;98.24;98179.03;5108874;28;20589;-64
2023/12/02 02:38:49;;;;;;;0.70;0.60;;;;;;;9.67;97.82;98178.91;5108994;28;20201;-64
2023/12/02 02:41:16;;;;;;;2.23;1.20;;;;;;;9.75;97.53;98174.78;5108669;28;20690;-64
2023/12/02 02:43:43;;;;;;;1.47;1.37;;;;;;;9.79;96.74;98171.97;5108708;28;20216;-64
2023/12/02 02:46:09;;;;;;;1.90;1.40;;;;;;;9.85;96.53;98166.34;5108881;28;20201;-64
2023/12/02 02:48:37;;;;;;;1.37;0.93;;;;;;;9.87;96.42;98177.25;5108744;28;20200;-64
2023/12/02 02:51:04;;;;;;;1.60;1.07;;;;;;;9.86;96.75;98178.16;5108634;28;20219;-64
2023/12/02 02:53:31;;;;;;;1.17;1.07;;;;;;;9.83;96.57;98178.44;5108389;28;20748;-64
2023/12/02 02:55:59;;;;;;;1.70;1.20;;;;;;;9.71;98.12;98175.16;5108869;28;20623;-64
2023/12/02 02:58:30;;;;;;;1.67;1.17;;;;;;;9.67;98.59;98173.81;5111991;28;20208;-64
2023/12/02 03:00:56;;;;;;;1.03;0.93;;;;;;;9.71;98.48;98175.97;5112540;28;20197;-64
2023/12/02 03:03:23;;;;;;;2.17;1.10;;;;;;;9.79;97.50;98171.97;5112892;28;20209;-64
2023/12/02 03:05:50;;;;;;;0.87;0.87;;;;;;;9.80;97.46;98173.59;5112907;28;20213;-64
2023/12/02 03:08:17;;;;;;;1.10;1.00;;;;;;;9.78;98.02;98175.47;5112473;28;20201;-64
2023/12/02 03:10:43;;;;;;;1.33;0.90;;;;;;;9.81;97.36;98170.13;5112308;28;20204;-64
2023/12/02 03:13:12;;;;;;;2.67;1.33;;;;;;;9.78;97.81;98180.59;5112561;28;20224;-64
2023/12/02 03:15:38;;;;;;;0.50;0.50;;;;;;;9.74;97.49;98180.00;5112519;28;20201;-64
2023/12/02 03:18:05;;;;;;;2.67;1.17;;;;;;;9.56;98.64;98184.91;5111889;27;20679;-63
2023/12/02 03:20:32;;;;;;;0.70;0.60;;;;;;;9.40;99.74;98192.22;5112221;28;20197;-64
2023/12/02 03:22:59;;;;;;;1.13;0.90;;;;;;;9.34;99.84;98193.50;5112108;28;20678;-64
2023/12/02 03:25:26;;;;;;;0.60;0.60;;;;;;;9.32;100.00;98192.81;5112492;28;20197;-64
2023/12/02 03:27:52;;;;;;;0.73;0.63;;;;;;;9.29;100.00;98183.69;5112321;28;20217;-63
2023/12/02 03:30:21;;;;;;;1.13;1.00;;;;;;;9.32;100.00;98182.63;5112025;28;20209;-65
2023/12/02 03:32:48;;;;;;;1.07;0.80;;;;;;;9.25;100.00;98194.25;5111770;28;20237;-64
2023/12/02 03:35:15;;;;;;;1.23;1.13;;;;;;;9.28;100.00;98194.81;5112228;28;20197;-64
2023/12/02 03:37:41;;;;;;;1.60;1.20;;;;;;;9.24;100.00;98188.34;5112092;28;20316;-64
2023/12/02 03:40:10;;;;;;;1.37;0.90;;;;;;;9.68;96.84;98176.22;5111854;28;20205;-64
2023/12/02 03:42:36;;;;;;;0.97;0.80;;;;;;;9.88;95.80;98176.31;5111758;28;20226;-64
2023/12/02 03:45:04;;;;;;;3.03;1.07;;;;;;;9.94;95.00;98176.59;5111762;28;20209;-64
2023/12/02 03:47:32;;;;;;;0.97;0.60;;;;;;;9.91;95.48;98176.03;5111839;28;20755;-64
2023/12/02 03:49:59;;;;;;;1.93;0.93;;;;;;;9.91;95.10;98165.84;5111632;28;20197;-64
2023/12/02 03:52:26;;;;;;;2.07;1.13;;;;;;;9.86;95.05;98158.59;5111645;28;20225;-64
2023/12/02 03:54:53;;;;;;;0.83;0.83;;;;;;;9.84;94.84;98154.53;5111598;28;20662;-64
2023/12/02 03:57:20;;;;;;;0.80;0.80;;;;;;;9.87;94.63;98146.63;5111720;28;20210;-64
2023/12/02 03:59:46;;;;;;;1.50;1.00;;;;;;;9.92;94.68;98141.94;5111437;28;20194;-64
2023/12/02 04:02:13;;;;;;;2.07;1.20;;;;;;;9.81;95.29;98154.78;5111298;28;20203;-64
2023/12/02 04:04:42;;;;;;;1.13;0.87;;;;;;;9.53;96.18;98157.09;5111664;28;20223;-64
2023/12/02 04:07:09;;;;;;;1.00;0.80;;;;;;;9.61;95.63;98149.59;5111313;28;20223;-64
2023/12/02 04:09:36;;;;;;;1.13;0.90;;;;;;;9.61;96.10;98144.50;5111261;28;20204;-64
2023/12/02 04:12:03;;;;;;;1.23;1.10;;;;;;;9.60;95.96;98142.06;5110891;28;20598;-64
2023/12/02 04:14:30;;;;;;;1.70;1.17;;;;;;;9.66;96.14;98139.81;5111386;28;20197;-64
2023/12/02 04:16:57;;;;;;;0.60;0.53;;;;;;;9.71;95.47;98140.22;5111324;28;20197;-64
2023/12/02 04:19:23;;;;;;;0.80;0.67;;;;;;;9.70;95.68;98153.13;5111107;28;20405;-64
2023/12/02 04:21:52;;;;;;;0.77;0.77;;;;;;;9.67;95.82;98154.19;5111260;28;20243;-64
2023/12/02 04:24:18;;;;;;;0.80;0.70;;;;;;;9.61;95.73;98154.72;5111035;28;20600;-64
2023/12/02 04:26:46;;;;;;;1.10;0.90;;;;;;;9.57;97.00;98153.34;5111012;28;20201;-64
2023/12/02 04:29:13;;;;;;;0.40;0.40;;;;;;;9.53;96.70;98162.19;5111314;28;20322;-64
2023/12/02 04:31:40;;;;;;;1.93;1.33;;;;;;;9.43;97.36;98146.03;5110824;28;20197;-64
2023/12/02 04:34:07;;;;;;;1.40;0.93;;;;;;;9.57;95.41;98147.41;5110701;28;20606;-64
2023/12/02 04:36:33;;;;;;;0.83;0.70;;;;;;;9.65;95.14;98145.03;5110710;28;20204;-64
2023/12/02 04:39:03;;;;;;;1.77;0.93;;;;;;;9.68;95.02;98149.88;5110569;28;20201;-64
2023/12/02 04:41:31;;;;;;;1.43;1.00;;;;;;;9.87;93.45;98146.63;5110616;28;20226;-64
2023/12/02 04:43:58;;;;;;;1.50;1.00;;;;;;;10.10;91.48;98149.78;5110611;28;20197;-64
2023/12/02 04:46:25;;;;;;;3.57;0.97;;;;;;;10.17;91.45;98156.78;5110743;28;20213;-64
2023/12/02 04:48:51;;;;;;;1.00;0.80;;;;;;;10.11;92.69;98159.84;5110441;28;20201;-64
2023/12/02 04:51:18;;;;;;;2.00;0.67;;;;;;;10.03;92.97;98159.69;5110763;28;20205;-64
2023/12/02 04:53:45;;;;;;;1.30;0.90;;;;;;;9.91;93.99;98151.31;5110330;28;20668;-64
2023/12/02 04:56:13;;;;;;;1.63;0.93;;;;;;;9.85;94.48;98156.16;5110407;28;20200;-64
2023/12/02 04:58:40;;;;;;;1.17;1.00;;;;;;;9.81;94.19;98154.78;5110390;28;20193;-64
2023/12/02 05:01:07;;;;;;;0.97;0.87;;;;;;;9.78;94.51;98152.50;5110124;28;20197;-64
2023/12/02 05:03:34;;;;;;;1.00;0.90;;;;;;;9.79;94.69;98133.69;5110368;28;20202;-64
2023/12/02 05:06:01;;;;;;;0.50;0.50;;;;;;;9.58;95.11;98139.66;5110048;28;20197;-64
2023/12/02 05:08:28;;;;;;;1.87;1.23;;;;;;;9.48;96.08;98159.19;5110107;28;20207;-64
2023/12/02 05:10:55;;;;;;;0.80;0.80;;;;;;;9.38;96.44;98158.34;5110307;28;20198;-64
2023/12/02 05:13:23;;;;;;;1.47;1.20;;;;;;;9.33;96.91;98140.88;5110369;28;20705;-64
2023/12/02 05:15:50;;;;;;;0.80;0.60;;;;;;;9.20;97.50;98151.28;5110007;28;20201;-64
2023/12/02 05:18:17;;;;;;;1.17;0.90;;;;;;;9.14;97.66;98150.97;5109623;28;20512;-64
2023/12/02 05:20:43;;;;;;;3.63;1.17;;;;;;;9.05;98.89;98132.13;5109332;28;20609;-64
2023/12/02 05:23:10;;;;;;;2.77;1.53;;;;;;;9.00;98.88;98124.03;5110002;28;20662;-63
2023/12/02 05:25:37;;;;;;;1.57;1.10;;;;;;;9.03;99.26;98128.88;5109912;28;20205;-64
2023/12/02 05:28:04;;;;;;;0.77;0.67;;;;;;;9.12;98.63;98134.97;5109670;28;20205;-64
2023/12/02 05:30:33;;;;;;;1.57;1.27;;;;;;;9.15;98.80;98132.19;5109669;28;20208;-64
2023/12/02 05:33:00;;;;;;;2.67;1.50;;;;;;;8.89;99.94;98147.03;5109970;28;20236;-64
2023/12/02 05:35:27;;;;;;;1.23;1.00;;;;;;;8.46;100.00;98146.16;5109702;28;20575;-64
2023/12/02 05:37:53;;;;;;;1.00;0.83;;;;;;;8.42;100.00;98138.88;5109671;28;20202;-63
2023/12/02 05:40:20;;;;;;;1.90;1.23;;;;;;;8.45;100.00;98126.72;5109780;28;20197;-64
2023/12/02 05:42:47;;;;;;;2.30;1.50;;;;;;;8.49;100.00;98129.81;5109456;28;20213;-64
2023/12/02 05:45:14;;;;;;;3.20;2.27;;;;;;;8.51;100.00;98133.06;5109597;28;20205;-65
2023/12/02 05:47:43;;;;;;;2.57;2.20;;;;;;;8.56;100.00;98143.69;5109436;28;20288;-64
2023/12/02 05:50:11;;;;;;;2.40;1.70;;;;;;;8.62;100.00;98135.56;5109380;28;20618;-64
2023/12/02 05:52:38;;;;;;;2.93;2.00;;;;;;;8.80;100.00;98139.19;5107474;28;20225;-63
2023/12/02 05:55:05;;;;;;;3.30;1.50;;;;;;;8.80;100.00;98131.53;5109368;28;20193;-64
2023/12/02 05:57:32;;;;;;;2.47;1.60;;;;;;;8.87;99.81;98133.59;5109518;28;20606;-64
2023/12/02 05:59:59;;;;;;;2.67;1.50;;;;;;;8.84;99.79;98139.75;5109418;28;20201;-64
2023/12/02 06:02:26;;;;;;;1.20;0.80;;;;;;;8.93;98.80;98139.03;5109162;28;20205;-64
2023/12/02 06:04:54;;;;;;;1.17;1.07;;;;;;;8.99;98.91;98132.63;5109164;28;20212;-64
2023/12/02 06:07:21;;;;;;;1.53;1.23;;;;;;;9.02;98.37;98132.38;5109122;28;20204;-64
2023/12/02 06:09:48;;;;;;;0.97;0.93;;;;;;;9.06;98.62;98129.44;5109045;28;20215;-63
2023/12/02 06:12:15;;;;;;;1.90;1.10;;;;;;;9.14;98.35;98121.19;5109120;28;20575;-63
2023/12/02 06:14:42;;;;;;;2.27;1.63;;;;;;;9.21;98.81;98117.16;5108878;28;20252;-64
2023/12/02 06:17:08;;;;;;;1.47;1.27;;;;;;;9.39;96.81;98114.84;5109163;28;20205;-64
2023/12/02 06:19:35;;;;;;;1.23;1.10;;;;;;;9.44;97.02;98109.38;5108929;28;20588;-64
2023/12/02 06:22:04;;;;;;;1.10;0.90;;;;;;;9.75;94.56;98105.88;5109189;28;20235;-63
2023/12/02 06:24:31;;;;;;;1.23;1.13;;;;;;;10.04;93.25;98117.09;5109115;28;20265;-64
2023/12/02 06:26:57;;;;;;;2.73;1.20;;;;;;;10.00;94.04;98124.19;5108810;28;20208;-64
2023/12/02 06:29:24;;;;;;;3.13;1.70;;;;;;;10.20;93.51;98130.16;5108874;28;20193;-64
2023/12/02 06:31:51;;;;;;;2.13;1.40;;;;;;;10.21;95.03;98129.25;5109455;28;20611;-64
2023/12/02 06:34:19;;;;;;;1.20;1.10;;;;;;;10.02;96.46;98130.00;5113235;28;20243;-64
2023/12/02 06:36:46;;;;;;;2.90;1.30;;;;;;;9.91;97.25;98125.78;5113101;28;20270;-64
2023/12/02 06:39:14;;;;;;;0.93;0.77;;;;;;;9.86;98.53;98132.22;5112930;28;20577;-64
2023/12/02 06:41:41;;;;;;;1.47;1.00;;;;;;;9.96;98.32;98138.19;5112884;28;20202;-64
2023/12/02 06:44:09;;;;;;;1.57;1.40;;;;;;;10.25;97.12;98134.88;5112935;28;20515;-63
2023/12/02 06:46:36;;;;;;;2.33;1.20;;;;;;;10.56;95.05;98133.03;5113055;28;20295;-64
2023/12/02 06:49:02;;;;;;;4.30;1.80;;;;;;;10.91;92.70;98134.25;5112832;28;20205;-64
2023/12/02 06:51:29;;;;;;;0.93;0.80;;;;;;;11.21;91.83;98146.88;5112996;28;20201;-63
2023/12/02 06:53:56;;;;;;;1.23;1.13;;;;;;;12.07;84.09;98138.19;5112741;27;20278;-63
2023/12/02 06:56:26;;;;;;;2.93;1.70;;;;;;;12.57;82.07;98143.69;5112927;28;20258;-64
2023/12/02 06:58:54;;;;;;;1.70;1.30;;;;;;;12.98;78.80;98144.03;5112724;28;20205;-64
2023/12/02 07:01:26;;;;;;;0.70;0.70;;;;;;;13.28;76.43;98147.94;5112464;28;20209;-63
2023/12/02 07:03:53;;;;;;;1.83;1.30;;;;;;;13.45;75.16;98145.47;5112653;28;20234;-63
2023/12/02 07:06:20;;;;;;;3.67;1.20;;;;;;;13.56;74.05;98142.66;5112635;28;20213;-63
2023/12/02 07:08:47;;;;;;;3.40;2.17;;;;;;;13.65;75.24;98140.94;5112451;27;20681;-63
2023/12/02 07:11:14;;;;;;;3.50;1.57;;;;;;;13.57;73.00;98139.13;5112527;28;20205;-63
2023/12/02 07:13:43;;;;;;;1.70;1.10;;;;;;;13.71;74.09;98146.25;5112293;28;20228;-63
2023/12/02 07:16:11;;;;;;;1.37;0.73;;;;;;;13.70;72.65;98144.66;5112475;28;20213;-64
2023/12/02 07:18:37;;;;;;;1.20;1.03;;;;;;;13.72;73.29;98144.47;5112069;28;20745;-63
2023/12/02 07:21:05;;;;;;;1.03;0.80;;;;;;;13.69;72.87;98153.28;5112301;27;20197;-63
2023/12/02 07:23:31;;;;;;;1.33;1.10;;;;;;;13.69;73.01;98158.44;5112289;28;20218;-63
2023/12/02 07:25:59;;;;;;;4.17;2.67;;;;;;;13.70;73.36;98165.19;5112564;28;20305;-63
2023/12/02 07:28:26;;;;;;;1.13;0.87;;;;;;;13.60;73.22;98161.94;5112422;28;20202;-63
2023/12/02 07:30:55;;;;;;;6.03;1.70;;;;;;;13.61;74.35;98168.66;5112224;28;20201;-63
2023/12/02 07:33:22;;;;;;;1.90;1.70;;;;;;;13.48;76.82;98178.56;5112257;28;20225;-63
2023/12/02 07:35:49;;;;;;;2.17;1.23;;;;;;;13.51;77.56;98185.97;5111899;28;20217;-62
2023/12/02 07:38:16;;;;;;;1.47;1.20;;;;;;;13.36;80.25;98188.28;5111795;28;20206;-63
2023/12/02 07:40:43;;;;;;;1.53;1.20;;;;;;;13.19;78.90;98192.44;5112026;28;20228;-62
2023/12/02 07:43:10;;;;;;;1.67;1.30;;;;;;;13.09;81.44;98184.06;5111285;28;20202;-63
2023/12/02 07:45:37;;;;;;;1.80;1.40;;;;;;;13.12;81.89;98181.19;5111693;28;20197;-62
2023/12/02 07:48:06;;;;;;;1.43;1.00;;;;;;;13.07;76.45;98183.38;5111590;28;20671;-62
2023/12/02 07:50:32;;;;;;;1.20;1.10;;;;;;;13.16;79.06;98182.47;5111864;28;20201;-62
2023/12/02 07:52:59;;;;;;;1.33;1.10;;;;;;;13.17;81.00;98178.94;5111580;28;20207;-62
2023/12/02 07:55:26;;;;;;;1.57;1.17;;;;;;;13.29;75.61;98184.69;5111647;27;20193;-62
2023/12/02 07:57:53;;;;;;;3.07;2.00;;;;;;;13.39;75.19;98192.31;5111792;28;20200;-62
2023/12/02 08:00:20;;;;;;;2.47;1.80;;;;;;;13.40;77.20;98191.34;5111540;28;20693;-62
2023/12/02 08:02:47;;;;;;;13.70;6.10;;;;;;;13.51;76.59;98188.53;5111639;28;20204;-62
2023/12/02 08:05:15;;;;;;;9.73;4.47;;;;;;;13.52;77.16;98182.41;5111502;28;20639;-62
2023/12/02 08:07:42;;;;;;;4.83;2.10;;;;;;;13.56;77.60;98188.88;5111364;28;20705;-62
2023/12/02 08:10:10;;;;;;;1.87;0.70;;;;;;;13.53;78.53;98202.03;5111267;28;20262;-62
2023/12/02 08:12:37;;;;;;;1.40;1.00;;;;;;;13.52;79.23;98202.97;5111285;28;20249;-62
2023/12/02 08:15:05;;;;;;;0.70;0.70;;;;;;;13.38;80.14;98208.66;5110951;28;20232;-62
2023/12/02 08:17:32;;;;;;;1.93;1.30;;;;;;;13.29;79.85;98218.88;5111491;28;20495;-62
2023/12/02 08:19:58;;;;;;;1.63;1.20;;;;;;;13.30;79.60;98206.84;5110925;28;20204;-62
2023/12/02 08:22:27;;;;;;;0.90;0.80;;;;;;;13.34;79.78;98220.97;5111329;28;20202;-62
2023/12/02 08:24:54;;;;;;;1.30;1.00;;;;;;;13.30;79.54;98217.13;5111336;28;20200;-62
2023/12/02 08:27:21;;;;;;;1.13;1.03;;;;;;;13.23;79.28;98224.56;5110969;28;20206;-63
2023/12/02 08:29:48;;;;;;;1.47;1.00;;;;;;;13.28;79.26;98229.28;5110876;28;20201;-63
2023/12/02 08:32:14;;;;;;;3.40;2.27;;;;;;;13.31;76.38;98206.69;5110980;28;20205;-62
2023/12/02 08:34:41;;;;;;;12.63;5.47;;;;;;;13.35;75.21;98210.56;5110743;28;20233;-62
2023/12/02 08:37:08;;;;;;;5.90;2.83;;;;;;;13.31;76.56;98196.41;5111000;28;20197;-62
2023/12/02 08:39:37;;;;;;;2.47;1.33;;;;;;;13.30;77.44;98199.94;5110805;28;20221;-62
2023/12/02 08:42:05;;;;;;;2.90;1.10;;;;;;;13.35;78.56;98190.03;5110551;28;20197;-62
2023/12/02 08:44:31;;;;;;;3.57;2.03;;;;;;;13.40;78.83;98188.78;5110752;28;20302;-62
2023/12/02 08:47:00;;;;;;;3.17;1.90;;;;;;;13.38;78.65;98185.53;5110749;28;20217;-61
2023/12/02 08:49:27;;;;;;;3.47;2.43;;;;;;;13.56;74.28;98165.75;5110614;28;20236;-61
2023/12/02 08:51:54;;;;;;;9.27;4.33;;;;;;;13.87;73.11;98175.53;5110433;28;20240;-61
2023/12/02 08:54:21;;;;;;;4.63;2.60;;;;;;;13.91;72.92;98176.84;5109774;28;20717;-62
2023/12/02 08:56:49;;;;;;;30.50;17.33;;;;;;;14.16;68.36;98182.88;5110411;28;20200;-62
2023/12/02 08:59:16;;;;;;;7.20;4.23;;;;;;;14.26;68.67;98165.56;5110606;28;20201;-61
2023/12/02 09:01:43;;;;;;;2.63;1.60;;;;;;;14.27;68.25;98178.25;5110178;28;20585;-61
2023/12/02 09:04:10;;;;;;;4.10;1.70;;;;;;;14.25;69.18;98164.75;5110505;28;20292;-62
2023/12/02 09:06:37;;;;;;;3.10;2.20;;;;;;;14.20;71.18;98155.91;5110305;28;20201;-61
2023/12/02 09:09:04;;;;;;;6.00;3.50;;;;;;;14.17;73.59;98149.31;5110065;27;20208;-62
2023/12/02 09:11:30;;;;;;;5.53;2.33;;;;;;;14.13;71.21;98149.78;5110150;28;20206;-61
2023/12/02 09:13:59;;;;;;;52.70;19.03;;;;;;;14.11;69.03;98147.38;5109948;28;20714;-62
2023/12/02 09:16:28;;;;;;;5.40;3.57;;;;;;;14.17;67.76;98136.47;5110041;28;20198;-61
2023/12/02 09:18:55;;;;;;;2.60;1.70;;;;;;;14.38;66.62;98127.50;5108996;28;20203;-61
2023/12/02 09:21:43;;;;;;;1.37;1.20;;;;;;;14.43;64.37;98130.41;5109931;28;20202;-62
2023/12/02 09:24:35;;;;;;;6.47;3.93;;;;;;;14.53;67.58;98107.13;5109695;28;20205;-61
2023/12/02 09:27:05;;;;;;;5.43;3.47;;;;;;;14.43;69.06;98114.97;5109067;28;20207;-62
2023/12/02 09:29:37;;;;;;;5.57;4.00;;;;;;;14.30;67.17;98130.84;5110171;28;20194;-61
2023/12/02 09:32:43;;;;;;;3.73;2.27;;;;;;;14.51;64.61;98145.81;5109204;28;20249;-61
2023/12/02 09:35:11;;;;;;;2.07;1.27;;;;;;;14.72;62.94;98140.28;5108984;28;20236;-62
2023/12/02 09:38:06;;;;;;;4.43;2.53;;;;;;;14.64;66.18;98133.34;5108699;28;20318;-61
2023/12/02 09:40:39;;;;;;;2.57;1.30;;;;;;;14.68;70.34;98119.19;5074582;28;20193;-62
2023/12/02 09:43:22;;;;;;;4.30;3.00;;;;;;;14.80;61.29;98108.56;5108414;28;20190;-62
2023/12/02 09:46:12;;;;;;;29.03;14.77;;;;;;;15.08;61.06;98066.06;5109392;28;20252;-62
2023/12/02 09:48:49;;;;;;;4.20;2.77;;;;;;;15.00;62.67;98018.94;5109709;28;20239;-62
2023/12/02 09:51:27;;;;;;;5.00;1.70;;;;;;;15.06;61.67;98005.41;5109484;28;20228;-62
2023/12/02 09:54:05;;;;;;;4.83;2.10;;;;;;;15.08;63.33;98018.94;5109383;28;20193;-62
2023/12/02 09:56:40;;;;;;;1.40;1.07;;;;;;;14.76;66.13;98006.94;5109271;28;20202;-61
2023/12/02 09:59:14;;;;;;;1.83;1.07;;;;;;;14.82;67.80;98045.69;5109183;28;20202;-61
2023/12/02 10:01:47;;;;;;;2.07;1.20;;;;;;;14.70;68.43;98081.25;5107128;28;20714;-62
2023/12/02 10:04:24;;;;;;;2.73;1.80;;;;;;;14.70;69.08;98083.03;5109367;28;20206;-62
2023/12/02 10:06:56;;;;;;;3.27;1.83;;;;;;;14.77;64.20;98101.19;5109222;28;20223;-62
2023/12/02 10:09:36;;;;;;;3.87;1.30;;;;;;;14.66;69.23;98110.84;5109464;28;20190;-62
2023/12/02 10:12:16;;;;;;;0.70;0.70;;;;;;;14.68;66.47;98114.03;5109332;28;20190;-61
2023/12/02 10:14:46;;;;;;;2.07;1.33;;;;;;;14.64;68.34;98110.19;5109078;28;20719;-62
2023/12/02 10:17:16;;;;;;;2.10;1.27;;;;;;;14.64;71.64;98115.34;5108988;28;20681;-62
2023/12/02 10:19:52;;;;;;;1.80;1.40;;;;;;;14.60;73.54;98110.66;5109357;28;20263;-62
2023/12/02 10:22:23;;;;;;;2.33;1.73;;;;;;;14.55;74.84;98113.72;5109140;28;20216;-62
2023/12/02 10:24:58;;;;;;;4.13;2.20;;;;;;;14.47;75.27;98111.13;5108982;28;20202;-61
2023/12/02 10:27:28;;;;;;;2.50;1.50;;;;;;;14.30;76.50;98115.44;5109129;28;20224;-61
2023/12/02 10:30:05;;;;;;;2.53;1.53;;;;;;;14.33;77.33;98109.16;5108656;28;20198;-62
2023/12/02 10:32:37;;;;;;;27.13;15.13;;;;;;;14.30;75.21;98096.63;5108587;28;20200;-61
2023/12/02 10:35:11;;;;;;;17.23;8.57;;;;;;;14.22;72.02;98103.38;5108180;28;20220;-61
2023/12/02 10:37:42;;;;;;;12.93;7.53;;;;;;;14.27;73.26;98085.69;5108487;28;20662;-61
2023/12/02 10:40:10;;;;;;;5.50;2.90;;;;;;;14.30;69.04;98029.78;5108807;28;20715;-62
2023/12/02 10:42:49;;;;;;;3.60;1.60;;;;;;;14.30;68.28;98038.28;5108967;28;20219;-61
2023/12/02 10:45:17;;;;;;;5.77;3.17;;;;;;;14.27;72.67;98065.13;5108674;28;20197;-62
2023/12/02 10:47:48;;;;;;;2.43;1.43;;;;;;;14.17;72.30;98100.47;5108626;28;20228;-62
2023/12/02 10:50:16;;;;;;;4.03;1.60;;;;;;;14.10;74.98;98102.03;5110638;28;20205;-62
2023/12/02 10:52:57;;;;;;;2.33;1.50;;;;;;;14.17;71.11;98082.47;5106939;28;20806;-60
2023/12/02 10:55:25;;;;;;;1.57;1.47;;;;;;;14.03;74.49;98077.94;5109347;28;20224;-61
2023/12/02 10:57:53;;;;;;;1.30;1.10;;;;;;;14.01;76.10;98069.59;5108944;28;20198;-62
2023/12/02 11:00:22;;;;;;;1.77;1.30;;;;;;;13.90;75.59;98046.75;5108698;28;20592;-62
2023/12/02 11:03:00;;;;;;;6.83;3.87;;;;;;;13.85;73.12;98038.72;5108690;28;20208;-62
2023/12/02 11:05:31;;;;;;;10.30;5.10;;;;;;;13.83;74.19;98044.00;5107846;28;20731;-62
2023/12/02 11:08:09;;;;;;;6.63;3.30;;;;;;;13.84;73.87;98047.38;5108386;28;20243;-62
2023/12/02 11:10:42;;;;;;;4.10;3.30;;;;;;;13.87;73.97;98054.78;5108611;28;20215;-61
2023/12/02 11:13:12;;;;;;;5.00;3.37;;;;;;;13.94;70.44;98058.34;5108560;28;20543;-62
2023/12/02 11:15:52;;;;;;;7.77;4.73;;;;;;;14.08;69.72;98055.16;5108407;28;20713;-62
2023/12/02 11:18:34;;;;;;;10.17;6.43;;;;;;;14.13;67.70;98045.19;5109809;28;20197;-61
2023/12/02 11:21:04;;;;;;;10.27;6.63;;;;;;;14.31;66.43;98044.22;5112176;28;20193;-61
2023/12/02 11:23:55;;;;;;;3.73;3.30;;;;;;;14.25;68.03;98043.94;5112199;28;20206;-61
2023/12/02 11:26:29;;;;;;;2.20;1.50;;;;;;;14.24;69.93;98044.88;5112783;28;20198;-61
2023/12/02 11:29:07;;;;;;;2.67;1.90;;;;;;;14.22;69.25;98038.28;5110105;28;20202;-61
2023/12/02 11:31:52;;;;;;;2.73;1.67;;;;;;;14.13;67.86;98034.09;5111953;28;20235;-62
2023/12/02 11:34:33;;;;;;;8.33;3.40;;;;;;;14.12;68.61;98035.06;5112140;28;20190;-59
2023/12/02 11:37:10;;;;;;;2.00;1.57;;;;;;;14.11;72.60;98016.28;5111976;28;20258;-62
2023/12/02 11:39:50;;;;;;;3.60;2.03;;;;;;;14.25;67.20;98027.69;5112086;28;20200;-59
2023/12/02 11:42:18;;;;;;;3.80;2.20;;;;;;;14.38;65.48;98009.22;5112100;28;20194;-59
2023/12/02 11:45:06;;;;;;;2.33;1.30;;;;;;;14.47;65.99;98008.25;5111299;28;20201;-59